createdAt,value
2017-08-20T00:00:10.838Z,23.92
2017-08-20T00:00:51.339Z,23.96
2017-08-20T00:01:31.769Z,23.91
2017-08-20T00:02:12.228Z,23.92
2017-08-20T00:02:52.694Z,23.95
2017-08-20T00:03:33.133Z,23.89
2017-08-20T00:04:13.577Z,23.95
2017-08-20T00:04:54.027Z,23.92
2017-08-20T00:05:34.478Z,23.94
2017-08-20T00:06:14.937Z,23.92
2017-08-20T00:06:55.430Z,23.96
2017-08-20T00:07:35.879Z,23.92
2017-08-20T00:08:16.334Z,23.92
2017-08-20T00:08:56.785Z,23.92
2017-08-20T00:09:37.242Z,23.88
2017-08-20T00:10:17.697Z,23.91
2017-08-20T00:10:58.153Z,23.92
2017-08-20T00:11:38.608Z,23.94
2017-08-20T00:12:19.061Z,23.94
2017-08-20T00:12:59.519Z,23.96
2017-08-20T00:13:39.979Z,23.91
2017-08-20T00:14:20.436Z,23.92
2017-08-20T00:15:00.882Z,23.92
2017-08-20T00:15:41.335Z,23.92
2017-08-20T00:16:21.799Z,23.91
2017-08-20T00:17:02.254Z,23.89
2017-08-20T00:17:42.711Z,23.94
2017-08-20T00:18:23.192Z,23.91
2017-08-20T00:19:03.800Z,23.88
2017-08-20T00:19:44.264Z,23.92
2017-08-20T00:20:24.714Z,23.91
2017-08-20T00:21:05.177Z,23.91
2017-08-20T00:21:45.627Z,23.94
2017-08-20T00:22:26.085Z,23.99
2017-08-20T00:23:06.535Z,23.94
2017-08-20T00:23:46.998Z,23.89
2017-08-20T00:24:27.441Z,23.92
2017-08-20T00:25:07.890Z,23.91
2017-08-20T00:25:48.365Z,23.89
2017-08-20T00:26:28.806Z,23.91
2017-08-20T00:27:09.256Z,23.94
2017-08-20T00:27:49.708Z,23.91
2017-08-20T00:28:30.180Z,23.92
2017-08-20T00:29:10.634Z,23.88
2017-08-20T00:29:51.094Z,23.94
2017-08-20T00:30:31.564Z,23.81
2017-08-20T00:31:12.019Z,23.96
2017-08-20T00:31:52.479Z,23.85
2017-08-20T00:32:32.932Z,23.91
2017-08-20T00:33:13.379Z,23.91
2017-08-20T00:33:53.831Z,23.95
2017-08-20T00:34:34.279Z,23.91
2017-08-20T00:35:14.741Z,23.94
2017-08-20T00:35:55.195Z,23.89
2017-08-20T00:36:35.648Z,23.95
2017-08-20T00:37:16.108Z,23.92
2017-08-20T00:37:56.561Z,23.86
2017-08-20T00:38:37.018Z,23.91
2017-08-20T00:39:17.467Z,23.89
2017-08-20T00:39:57.944Z,23.94
2017-08-20T00:40:38.381Z,23.89
2017-08-20T00:41:18.826Z,23.89
2017-08-20T00:41:59.295Z,23.92
2017-08-20T00:42:39.737Z,23.91
2017-08-20T00:43:20.183Z,23.85
2017-08-20T00:44:00.638Z,23.89
2017-08-20T00:44:41.085Z,23.92
2017-08-20T00:45:21.527Z,23.89
2017-08-20T00:46:01.982Z,23.94
2017-08-20T00:46:42.440Z,23.91
2017-08-20T00:47:22.933Z,23.85
2017-08-20T00:48:03.326Z,23.88
2017-08-20T00:48:43.776Z,23.94
2017-08-20T00:49:24.225Z,23.94
2017-08-20T00:50:04.689Z,23.94
2017-08-20T00:50:45.139Z,23.82
2017-08-20T00:51:25.587Z,23.94
2017-08-20T00:52:06.043Z,23.94
2017-08-20T00:52:46.503Z,23.86
2017-08-20T00:53:26.944Z,23.94
2017-08-20T00:54:07.400Z,23.95
2017-08-20T00:54:47.872Z,23.91
2017-08-20T00:55:28.328Z,23.86
2017-08-20T00:56:08.783Z,23.85
2017-08-20T00:56:49.244Z,23.95
2017-08-20T00:57:29.701Z,23.81
2017-08-20T00:58:10.157Z,23.86
2017-08-20T00:58:50.611Z,23.92
2017-08-20T00:59:31.067Z,23.88
2017-08-20T01:00:11.517Z,23.92
2017-08-20T01:00:51.972Z,23.82
2017-08-20T01:01:32.427Z,23.85
2017-08-20T01:02:12.886Z,23.92
2017-08-20T01:02:53.368Z,23.82
2017-08-20T01:03:33.834Z,23.85
2017-08-20T01:04:14.277Z,23.92
2017-08-20T01:04:54.728Z,23.86
2017-08-20T01:05:35.182Z,23.95
2017-08-20T01:06:15.631Z,23.89
2017-08-20T01:06:56.094Z,23.86
2017-08-20T01:07:36.548Z,23.85
2017-08-20T01:08:16.998Z,23.91
2017-08-20T01:08:57.462Z,23.91
2017-08-20T01:09:37.917Z,23.95
2017-08-20T01:10:18.413Z,23.92
2017-08-20T01:10:58.870Z,23.84
2017-08-20T01:11:39.315Z,23.91
2017-08-20T01:12:19.778Z,23.91
2017-08-20T01:13:00.230Z,23.84
2017-08-20T01:13:40.681Z,23.82
2017-08-20T01:14:21.136Z,23.89
2017-08-20T01:15:01.594Z,23.86
2017-08-20T01:15:42.046Z,23.84
2017-08-20T01:16:22.512Z,23.91
2017-08-20T01:17:02.965Z,23.84
2017-08-20T01:17:43.442Z,23.81
2017-08-20T01:18:23.895Z,23.88
2017-08-20T01:19:04.346Z,23.81
2017-08-20T01:19:44.819Z,23.84
2017-08-20T01:20:25.250Z,23.79
2017-08-20T01:21:05.713Z,23.91
2017-08-20T01:21:46.169Z,23.85
2017-08-20T01:22:26.625Z,23.84
2017-08-20T01:23:07.088Z,23.85
2017-08-20T01:23:47.544Z,23.84
2017-08-20T01:24:27.992Z,23.85
2017-08-20T01:25:08.463Z,23.85
2017-08-20T01:25:48.919Z,23.82
2017-08-20T01:26:29.377Z,23.81
2017-08-20T01:27:09.833Z,23.89
2017-08-20T01:27:50.299Z,23.82
2017-08-20T01:28:30.752Z,23.85
2017-08-20T01:29:11.201Z,23.88
2017-08-20T01:29:51.659Z,23.84
2017-08-20T01:30:32.114Z,23.85
2017-08-20T01:31:12.582Z,23.85
2017-08-20T01:31:53.035Z,23.84
2017-08-20T01:32:33.492Z,23.88
2017-08-20T01:33:13.957Z,23.85
2017-08-20T01:33:54.403Z,23.82
2017-08-20T01:34:34.862Z,23.84
2017-08-20T01:35:15.319Z,23.84
2017-08-20T01:35:55.775Z,23.84
2017-08-20T01:36:36.231Z,23.84
2017-08-20T01:37:16.692Z,23.85
2017-08-20T01:37:57.164Z,23.84
2017-08-20T01:38:37.616Z,23.85
2017-08-20T01:39:18.074Z,23.82
2017-08-20T01:41:05.634Z,23.91
2017-08-20T01:41:46.089Z,23.84
2017-08-20T01:42:26.535Z,23.84
2017-08-20T01:43:06.994Z,23.82
2017-08-20T01:43:47.445Z,23.81
2017-08-20T01:44:27.898Z,23.92
2017-08-20T01:45:08.358Z,23.84
2017-08-20T01:45:48.813Z,23.91
2017-08-20T01:46:29.267Z,23.94
2017-08-20T01:47:09.724Z,23.89
2017-08-20T01:47:50.183Z,23.85
2017-08-20T01:48:30.635Z,23.86
2017-08-20T01:49:11.095Z,23.81
2017-08-20T01:49:51.542Z,23.88
2017-08-20T01:50:31.990Z,23.82
2017-08-20T01:51:12.429Z,23.82
2017-08-20T01:51:52.888Z,23.84
2017-08-20T01:52:33.337Z,23.82
2017-08-20T01:53:13.785Z,23.85
2017-08-20T01:53:54.234Z,23.91
2017-08-20T01:54:34.678Z,23.86
2017-08-20T01:55:15.135Z,23.91
2017-08-20T01:55:55.599Z,23.86
2017-08-20T01:56:36.053Z,23.85
2017-08-20T01:57:16.509Z,23.81
2017-08-20T01:57:56.968Z,23.88
2017-08-20T01:58:37.412Z,23.81
2017-08-20T01:59:17.863Z,23.85
2017-08-20T01:59:58.311Z,23.84
2017-08-20T02:00:38.760Z,23.81
2017-08-20T02:01:19.208Z,23.88
2017-08-20T02:01:59.670Z,23.76
2017-08-20T02:02:40.122Z,23.85
2017-08-20T02:03:20.599Z,23.84
2017-08-20T02:04:01.048Z,23.85
2017-08-20T02:04:41.495Z,23.77
2017-08-20T02:05:21.961Z,23.79
2017-08-20T02:06:02.415Z,23.76
2017-08-20T02:06:42.874Z,23.82
2017-08-20T02:07:23.340Z,23.88
2017-08-20T02:08:03.815Z,23.85
2017-08-20T02:08:44.276Z,23.86
2017-08-20T02:09:24.726Z,23.79
2017-08-20T02:10:05.187Z,23.82
2017-08-20T02:10:45.641Z,23.86
2017-08-20T02:11:26.093Z,23.86
2017-08-20T02:12:06.547Z,23.76
2017-08-20T02:12:46.991Z,23.79
2017-08-20T02:13:27.450Z,23.81
2017-08-20T02:14:07.909Z,23.79
2017-08-20T02:14:48.433Z,23.76
2017-08-20T02:15:28.896Z,23.79
2017-08-20T02:16:09.365Z,23.73
2017-08-20T02:16:49.827Z,23.66
2017-08-20T02:17:30.285Z,23.74
2017-08-20T02:18:10.736Z,23.74
2017-08-20T02:18:51.179Z,23.69
2017-08-20T02:19:31.630Z,23.71
2017-08-20T02:20:12.061Z,23.7
2017-08-20T02:20:52.526Z,23.69
2017-08-20T02:21:32.988Z,23.74
2017-08-20T02:22:13.453Z,23.74
2017-08-20T02:22:53.903Z,23.73
2017-08-20T02:23:34.352Z,23.71
2017-08-20T02:24:14.812Z,23.73
2017-08-20T02:24:55.269Z,23.76
2017-08-20T02:25:35.738Z,23.73
2017-08-20T02:26:16.186Z,23.73
2017-08-20T02:26:56.643Z,23.73
2017-08-20T02:27:37.096Z,23.77
2017-08-20T02:28:17.552Z,23.7
2017-08-20T02:28:58.014Z,23.79
2017-08-20T02:29:38.481Z,23.73
2017-08-20T02:30:18.928Z,23.73
2017-08-20T02:30:59.391Z,23.71
2017-08-20T02:31:39.835Z,23.84
2017-08-20T02:32:20.291Z,23.74
2017-08-20T02:33:00.747Z,23.7
2017-08-20T02:33:41.206Z,23.73
2017-08-20T02:34:21.658Z,23.71
2017-08-20T02:35:02.111Z,23.71
2017-08-20T02:35:42.569Z,23.71
2017-08-20T02:36:23.039Z,23.74
2017-08-20T02:37:03.475Z,23.71
2017-08-20T02:37:43.932Z,23.71
2017-08-20T02:38:24.387Z,23.73
2017-08-20T02:39:04.847Z,23.74
2017-08-20T02:39:45.303Z,23.73
2017-08-20T02:40:25.753Z,23.69
2017-08-20T02:41:06.207Z,23.71
2017-08-20T02:41:46.665Z,23.71
2017-08-20T02:42:27.114Z,23.69
2017-08-20T02:43:07.558Z,23.7
2017-08-20T02:43:48.009Z,23.73
2017-08-20T02:44:28.471Z,23.74
2017-08-20T02:45:08.929Z,23.73
2017-08-20T02:45:49.386Z,23.69
2017-08-20T02:46:29.854Z,23.7
2017-08-20T02:47:10.309Z,23.73
2017-08-20T02:47:50.770Z,23.73
2017-08-20T02:48:31.225Z,23.64
2017-08-20T02:49:11.679Z,23.77
2017-08-20T02:49:52.140Z,23.79
2017-08-20T02:50:32.601Z,23.73
2017-08-20T02:51:13.064Z,23.66
2017-08-20T02:51:53.511Z,23.67
2017-08-20T02:52:33.969Z,23.69
2017-08-20T02:53:14.418Z,23.69
2017-08-20T02:53:54.866Z,23.73
2017-08-20T02:54:35.323Z,23.67
2017-08-20T02:55:15.781Z,23.71
2017-08-20T02:55:56.234Z,23.73
2017-08-20T02:56:36.685Z,23.74
2017-08-20T02:57:17.146Z,23.7
2017-08-20T02:57:57.627Z,23.71
2017-08-20T02:58:38.079Z,23.71
2017-08-20T02:59:18.539Z,23.74
2017-08-20T02:59:58.989Z,23.64
2017-08-20T03:00:39.446Z,23.73
2017-08-20T03:01:19.898Z,23.71
2017-08-20T03:02:00.362Z,23.71
2017-08-20T03:02:40.824Z,23.62
2017-08-20T03:03:21.267Z,23.73
2017-08-20T03:04:01.720Z,23.67
2017-08-20T03:04:42.178Z,23.67
2017-08-20T03:05:22.630Z,23.67
2017-08-20T03:06:03.088Z,23.69
2017-08-20T03:06:43.559Z,23.67
2017-08-20T03:07:24.044Z,23.66
2017-08-20T03:08:04.467Z,23.67
2017-08-20T03:08:44.916Z,23.66
2017-08-20T03:09:25.360Z,23.69
2017-08-20T03:10:05.820Z,23.69
2017-08-20T03:10:46.273Z,23.69
2017-08-20T03:11:26.725Z,23.69
2017-08-20T03:12:07.182Z,23.73
2017-08-20T03:12:47.639Z,23.69
2017-08-20T03:13:28.096Z,23.67
2017-08-20T03:14:08.569Z,23.69
2017-08-20T03:14:49.025Z,23.7
2017-08-20T03:15:29.478Z,23.59
2017-08-20T03:16:09.937Z,23.55
2017-08-20T03:16:50.383Z,23.55
2017-08-20T03:17:30.842Z,23.54
2017-08-20T03:18:11.289Z,23.54
2017-08-20T03:18:51.752Z,23.45
2017-08-20T03:19:32.212Z,23.51
2017-08-20T03:20:12.667Z,23.45
2017-08-20T03:20:53.124Z,23.48
2017-08-20T03:21:33.577Z,23.48
2017-08-20T03:22:14.044Z,23.45
2017-08-20T03:22:54.503Z,23.32
2017-08-20T03:23:34.958Z,23.33
2017-08-20T03:24:15.418Z,23.33
2017-08-20T03:24:55.873Z,23.36
2017-08-20T03:25:36.324Z,23.39
2017-08-20T03:26:16.783Z,23.36
2017-08-20T03:26:57.232Z,23.39
2017-08-20T03:27:37.686Z,23.32
2017-08-20T03:28:18.146Z,23.39
2017-08-20T03:28:58.684Z,23.29
2017-08-20T03:29:39.128Z,23.32
2017-08-20T03:30:19.591Z,23.33
2017-08-20T03:31:00.048Z,23.29
2017-08-20T03:31:40.501Z,23.33
2017-08-20T03:32:20.957Z,23.42
2017-08-20T03:33:01.422Z,23.28
2017-08-20T03:33:41.871Z,23.32
2017-08-20T03:34:22.323Z,23.32
2017-08-20T03:35:02.784Z,23.26
2017-08-20T03:35:43.243Z,23.25
2017-08-20T03:36:23.697Z,23.28
2017-08-20T03:37:04.154Z,23.25
2017-08-20T03:37:44.613Z,23.36
2017-08-20T03:38:25.066Z,23.34
2017-08-20T03:39:05.521Z,23.29
2017-08-20T03:39:45.990Z,23.26
2017-08-20T03:40:26.430Z,23.33
2017-08-20T03:41:06.883Z,23.25
2017-08-20T03:41:47.339Z,23.25
2017-08-20T03:42:27.791Z,23.28
2017-08-20T03:43:08.229Z,23.32
2017-08-20T03:43:48.687Z,23.33
2017-08-20T03:44:29.138Z,23.23
2017-08-20T03:45:09.598Z,23.32
2017-08-20T03:45:50.052Z,23.33
2017-08-20T03:46:30.511Z,23.32
2017-08-20T03:47:10.976Z,23.28
2017-08-20T03:47:51.425Z,23.32
2017-08-20T03:48:31.870Z,23.26
2017-08-20T03:49:12.311Z,23.28
2017-08-20T03:49:52.781Z,23.28
2017-08-20T03:50:33.240Z,23.34
2017-08-20T03:51:13.699Z,23.29
2017-08-20T03:51:54.137Z,23.26
2017-08-20T03:52:34.596Z,23.32
2017-08-20T03:53:15.057Z,23.42
2017-08-20T03:53:55.507Z,23.36
2017-08-20T03:54:35.951Z,23.25
2017-08-20T03:55:16.399Z,23.23
2017-08-20T03:55:56.889Z,23.34
2017-08-20T03:56:37.309Z,23.29
2017-08-20T03:57:17.771Z,23.32
2017-08-20T03:57:58.220Z,23.36
2017-08-20T03:58:38.678Z,23.28
2017-08-20T03:59:19.136Z,23.32
2017-08-20T03:59:59.586Z,23.34
2017-08-20T04:00:40.045Z,23.39
2017-08-20T04:01:20.503Z,23.33
2017-08-20T04:02:00.957Z,23.39
2017-08-20T04:02:41.421Z,23.37
2017-08-20T04:03:21.874Z,23.45
2017-08-20T04:04:02.318Z,23.37
2017-08-20T04:04:42.773Z,23.36
2017-08-20T04:05:23.306Z,23.37
2017-08-20T04:06:03.683Z,23.4
2017-08-20T04:06:44.144Z,23.47
2017-08-20T04:08:21.581Z,23.42
2017-08-20T04:09:02.034Z,23.32
2017-08-20T04:09:42.482Z,23.44
2017-08-20T04:10:22.928Z,23.39
2017-08-20T04:11:03.383Z,23.47
2017-08-20T04:11:43.863Z,23.49
2017-08-20T04:12:24.287Z,23.34
2017-08-20T04:13:04.740Z,23.4
2017-08-20T04:13:45.199Z,23.44
2017-08-20T04:14:25.653Z,23.49
2017-08-20T04:15:06.100Z,23.47
2017-08-20T04:15:46.552Z,23.48
2017-08-20T04:16:26.998Z,23.48
2017-08-20T04:17:07.448Z,23.49
2017-08-20T04:17:47.902Z,23.51
2017-08-20T04:18:28.357Z,23.52
2017-08-20T04:19:08.806Z,23.54
2017-08-20T04:19:49.256Z,23.56
2017-08-20T04:20:29.714Z,23.58
2017-08-20T04:21:10.174Z,23.54
2017-08-20T04:21:50.623Z,23.59
2017-08-20T04:22:31.081Z,23.55
2017-08-20T04:23:11.540Z,23.52
2017-08-20T04:23:51.999Z,23.54
2017-08-20T04:24:32.455Z,23.59
2017-08-20T04:25:12.911Z,23.62
2017-08-20T04:25:53.367Z,23.63
2017-08-20T04:26:33.822Z,23.64
2017-08-20T04:27:14.277Z,23.63
2017-08-20T04:27:54.728Z,23.66
2017-08-20T04:28:35.190Z,23.58
2017-08-20T04:29:15.646Z,23.62
2017-08-20T04:29:56.101Z,23.59
2017-08-20T04:30:36.563Z,23.63
2017-08-20T04:31:17.023Z,23.7
2017-08-20T04:31:57.478Z,23.66
2017-08-20T04:32:37.935Z,23.71
2017-08-20T04:33:18.391Z,23.67
2017-08-20T04:33:58.859Z,23.67
2017-08-20T04:34:39.313Z,23.66
2017-08-20T04:35:19.760Z,23.67
2017-08-20T04:36:00.219Z,23.66
2017-08-20T04:36:40.657Z,23.73
2017-08-20T04:37:21.101Z,23.67
2017-08-20T04:38:01.554Z,23.64
2017-08-20T04:38:42.042Z,23.62
2017-08-20T04:39:22.446Z,23.63
2017-08-20T04:40:02.883Z,23.71
2017-08-20T04:40:43.324Z,23.7
2017-08-20T04:41:23.762Z,23.73
2017-08-20T04:42:04.207Z,23.66
2017-08-20T04:42:44.660Z,23.7
2017-08-20T04:43:25.115Z,23.64
2017-08-20T04:44:05.556Z,23.73
2017-08-20T04:44:46.002Z,23.67
2017-08-20T04:45:26.465Z,23.66
2017-08-20T04:46:06.909Z,23.69
2017-08-20T04:46:47.352Z,23.64
2017-08-20T04:47:27.815Z,23.69
2017-08-20T04:48:08.253Z,23.64
2017-08-20T04:48:48.714Z,23.66
2017-08-20T04:49:29.155Z,23.71
2017-08-20T04:50:09.608Z,23.67
2017-08-20T04:50:50.056Z,23.66
2017-08-20T04:51:30.499Z,23.67
2017-08-20T04:52:10.952Z,23.64
2017-08-20T04:52:51.405Z,23.73
2017-08-20T04:53:31.850Z,23.7
2017-08-20T04:54:12.300Z,23.7
2017-08-20T04:54:52.755Z,23.76
2017-08-20T04:55:33.208Z,23.7
2017-08-20T04:56:13.652Z,23.73
2017-08-20T04:56:54.096Z,23.66
2017-08-20T04:57:34.547Z,23.77
2017-08-20T04:58:14.988Z,23.74
2017-08-20T04:58:55.474Z,23.74
2017-08-20T04:59:35.928Z,23.64
2017-08-20T05:00:16.388Z,23.76
2017-08-20T05:00:56.857Z,23.73
2017-08-20T05:01:37.307Z,23.71
2017-08-20T05:02:17.760Z,23.73
2017-08-20T05:02:58.206Z,23.74
2017-08-20T05:03:38.655Z,23.79
2017-08-20T05:04:19.107Z,23.66
2017-08-20T05:04:59.559Z,23.74
2017-08-20T05:05:39.995Z,23.69
2017-08-20T05:06:20.445Z,23.71
2017-08-20T05:07:00.900Z,23.67
2017-08-20T05:07:41.356Z,23.7
2017-08-20T05:08:21.798Z,23.67
2017-08-20T05:09:02.245Z,23.7
2017-08-20T05:09:42.700Z,23.7
2017-08-20T05:10:23.165Z,23.71
2017-08-20T05:11:03.592Z,23.73
2017-08-20T05:11:44.036Z,23.66
2017-08-20T05:12:24.485Z,23.74
2017-08-20T05:13:04.933Z,23.71
2017-08-20T05:13:45.386Z,23.67
2017-08-20T05:14:25.835Z,23.67
2017-08-20T05:15:06.284Z,23.73
2017-08-20T05:15:46.727Z,23.71
2017-08-20T05:16:27.173Z,23.69
2017-08-20T05:17:07.621Z,23.74
2017-08-20T05:17:48.072Z,23.64
2017-08-20T05:18:28.514Z,23.69
2017-08-20T05:19:08.982Z,23.84
2017-08-20T05:19:49.426Z,23.77
2017-08-20T05:20:29.866Z,23.69
2017-08-20T05:21:10.333Z,23.73
2017-08-20T05:21:50.783Z,23.69
2017-08-20T05:22:31.233Z,23.76
2017-08-20T05:23:11.672Z,23.63
2017-08-20T05:23:52.112Z,23.67
2017-08-20T05:24:32.579Z,23.76
2017-08-20T05:25:13.006Z,23.7
2017-08-20T05:25:53.439Z,23.63
2017-08-20T05:26:33.896Z,23.67
2017-08-20T05:27:14.334Z,23.71
2017-08-20T05:27:54.798Z,23.7
2017-08-20T05:28:35.242Z,23.63
2017-08-20T05:29:15.688Z,23.64
2017-08-20T05:29:56.134Z,23.64
2017-08-20T05:30:36.589Z,23.59
2017-08-20T05:31:17.033Z,23.58
2017-08-20T05:31:57.474Z,23.69
2017-08-20T05:32:37.933Z,23.67
2017-08-20T05:33:18.386Z,23.62
2017-08-20T05:33:58.835Z,23.62
2017-08-20T05:34:39.294Z,23.66
2017-08-20T05:35:19.755Z,23.66
2017-08-20T05:36:00.203Z,23.67
2017-08-20T05:36:40.656Z,23.64
2017-08-20T05:37:21.116Z,23.64
2017-08-20T05:38:01.580Z,23.7
2017-08-20T05:38:42.053Z,23.67
2017-08-20T05:39:22.499Z,23.63
2017-08-20T05:40:02.947Z,23.7
2017-08-20T05:40:43.407Z,23.69
2017-08-20T05:41:23.862Z,23.67
2017-08-20T05:42:04.310Z,23.7
2017-08-20T05:42:44.767Z,23.69
2017-08-20T05:43:25.222Z,23.69
2017-08-20T05:44:05.666Z,23.67
2017-08-20T05:44:46.118Z,23.67
2017-08-20T05:45:26.563Z,23.64
2017-08-20T05:46:07.051Z,23.64
2017-08-20T05:46:47.491Z,23.64
2017-08-20T05:47:27.943Z,23.64
2017-08-20T05:48:08.408Z,23.69
2017-08-20T05:48:48.898Z,23.67
2017-08-20T05:49:29.355Z,23.69
2017-08-20T05:50:09.803Z,23.7
2017-08-20T05:50:50.254Z,23.67
2017-08-20T05:51:30.682Z,23.69
2017-08-20T05:52:11.127Z,23.7
2017-08-20T05:52:51.576Z,23.69
2017-08-20T05:53:32.038Z,23.7
2017-08-20T05:55:24.637Z,23.7
2017-08-20T05:56:05.097Z,23.67
2017-08-20T05:56:45.559Z,23.81
2017-08-20T05:57:25.998Z,23.63
2017-08-20T05:58:06.443Z,23.7
2017-08-20T05:58:46.888Z,23.64
2017-08-20T05:59:27.366Z,23.66
2017-08-20T06:00:07.814Z,23.66
2017-08-20T06:00:48.258Z,23.64
2017-08-20T06:01:28.699Z,23.69
2017-08-20T06:02:09.146Z,23.7
2017-08-20T06:02:49.592Z,23.58
2017-08-20T06:03:30.047Z,23.55
2017-08-20T06:04:10.504Z,23.55
2017-08-20T06:04:50.954Z,23.59
2017-08-20T06:05:31.402Z,23.56
2017-08-20T06:06:11.850Z,23.51
2017-08-20T06:06:52.308Z,23.51
2017-08-20T06:07:32.756Z,23.54
2017-08-20T06:08:13.210Z,23.51
2017-08-20T06:08:53.671Z,23.48
2017-08-20T06:09:34.130Z,23.44
2017-08-20T06:10:14.583Z,23.39
2017-08-20T06:10:55.050Z,23.32
2017-08-20T06:11:35.529Z,23.4
2017-08-20T06:12:15.968Z,23.32
2017-08-20T06:12:56.423Z,23.33
2017-08-20T06:13:36.866Z,23.33
2017-08-20T06:14:17.305Z,23.33
2017-08-20T06:14:57.764Z,23.39
2017-08-20T06:15:38.225Z,23.34
2017-08-20T06:16:18.674Z,23.37
2017-08-20T06:16:59.128Z,23.34
2017-08-20T06:17:39.569Z,23.39
2017-08-20T06:18:20.018Z,23.32
2017-08-20T06:19:00.462Z,23.29
2017-08-20T06:19:40.925Z,23.33
2017-08-20T06:20:21.413Z,23.34
2017-08-20T06:21:01.870Z,23.36
2017-08-20T06:21:42.329Z,23.32
2017-08-20T06:22:22.776Z,23.25
2017-08-20T06:23:03.276Z,23.25
2017-08-20T06:23:43.714Z,23.23
2017-08-20T06:24:24.166Z,23.34
2017-08-20T06:25:04.616Z,23.28
2017-08-20T06:25:45.073Z,23.32
2017-08-20T06:26:25.532Z,23.32
2017-08-20T06:27:05.982Z,23.37
2017-08-20T06:27:46.445Z,23.39
2017-08-20T06:28:26.909Z,23.25
2017-08-20T06:29:07.364Z,23.34
2017-08-20T06:29:47.816Z,23.28
2017-08-20T06:30:28.278Z,23.29
2017-08-20T06:31:08.710Z,23.33
2017-08-20T06:31:49.162Z,23.34
2017-08-20T06:32:29.607Z,23.44
2017-08-20T06:33:10.061Z,23.45
2017-08-20T06:33:50.510Z,23.44
2017-08-20T06:34:30.961Z,23.47
2017-08-20T06:35:11.406Z,23.44
2017-08-20T06:35:51.851Z,23.47
2017-08-20T06:36:32.300Z,23.39
2017-08-20T06:37:12.756Z,23.44
2017-08-20T06:37:53.213Z,23.44
2017-08-20T06:38:33.684Z,23.44
2017-08-20T06:39:14.150Z,23.47
2017-08-20T06:39:54.677Z,23.49
2017-08-20T06:40:35.145Z,23.59
2017-08-20T06:41:15.619Z,23.55
2017-08-20T06:41:56.140Z,23.48
2017-08-20T06:42:36.596Z,23.51
2017-08-20T06:43:17.058Z,23.52
2017-08-20T06:43:57.507Z,23.52
2017-08-20T06:44:37.952Z,23.52
2017-08-20T06:45:18.420Z,23.51
2017-08-20T06:45:58.902Z,23.47
2017-08-20T06:46:39.351Z,23.45
2017-08-20T06:47:19.811Z,23.47
2017-08-20T06:48:00.266Z,23.49
2017-08-20T06:48:40.718Z,23.52
2017-08-20T06:49:21.151Z,23.51
2017-08-20T06:50:01.601Z,23.51
2017-08-20T06:50:42.065Z,23.51
2017-08-20T06:51:22.520Z,23.51
2017-08-20T06:52:02.975Z,23.51
2017-08-20T06:52:43.434Z,23.49
2017-08-20T06:53:23.901Z,23.42
2017-08-20T06:54:04.349Z,23.44
2017-08-20T06:54:44.798Z,23.44
2017-08-20T06:55:25.250Z,23.39
2017-08-20T06:56:05.696Z,23.39
2017-08-20T06:56:46.157Z,23.44
2017-08-20T06:57:26.614Z,23.25
2017-08-20T06:58:07.068Z,23.29
2017-08-20T06:58:47.525Z,23.29
2017-08-20T06:59:27.999Z,23.33
2017-08-20T07:00:08.457Z,23.36
2017-08-20T07:00:48.920Z,23.42
2017-08-20T07:01:29.381Z,23.48
2017-08-20T07:02:09.841Z,23.49
2017-08-20T07:02:50.294Z,23.52
2017-08-20T07:03:30.744Z,23.55
2017-08-20T07:04:11.204Z,23.52
2017-08-20T07:04:51.660Z,23.69
2017-08-20T07:05:32.117Z,23.67
2017-08-20T07:06:12.564Z,23.7
2017-08-20T07:06:53.018Z,23.77
2017-08-20T07:07:33.480Z,23.69
2017-08-20T07:08:13.936Z,23.79
2017-08-20T07:08:54.395Z,23.86
2017-08-20T07:09:34.832Z,23.86
2017-08-20T07:10:15.284Z,23.89
2017-08-20T07:10:56.125Z,23.92
2017-08-20T07:11:36.539Z,23.96
2017-08-20T07:12:16.958Z,23.96
2017-08-20T07:12:57.330Z,23.92
2017-08-20T07:13:37.742Z,24.04
2017-08-20T07:14:18.157Z,24.06
2017-08-20T07:14:58.633Z,24.1
2017-08-20T07:15:39.064Z,24.1
2017-08-20T07:16:19.525Z,24.09
2017-08-20T07:16:59.948Z,24.22
2017-08-20T07:17:40.368Z,24.25
2017-08-20T07:18:20.754Z,24.25
2017-08-20T07:19:01.167Z,24.29
2017-08-20T07:19:41.622Z,24.29
2017-08-20T07:20:22.075Z,24.32
2017-08-20T07:21:02.534Z,24.34
2017-08-20T07:21:42.988Z,24.43
2017-08-20T07:22:23.922Z,24.46
2017-08-20T07:23:04.024Z,24.48
2017-08-20T07:23:44.501Z,24.48
2017-08-20T07:24:24.951Z,24.53
2017-08-20T07:25:05.414Z,24.55
2017-08-20T07:25:45.865Z,24.59
2017-08-20T07:26:26.316Z,24.58
2017-08-20T07:27:07.749Z,24.56
2017-08-20T07:27:48.271Z,24.63
2017-08-20T07:28:28.840Z,24.62
2017-08-20T07:29:10.215Z,24.62
2017-08-20T07:29:50.668Z,24.68
2017-08-20T07:30:31.350Z,24.69
2017-08-20T07:31:11.798Z,24.65
2017-08-20T07:31:52.257Z,24.74
2017-08-20T07:32:32.717Z,24.77
2017-08-20T07:33:13.172Z,24.79
2017-08-20T07:33:53.633Z,24.84
2017-08-20T07:34:34.083Z,24.82
2017-08-20T07:35:14.525Z,24.85
2017-08-20T07:35:55.529Z,24.84
2017-08-20T07:36:35.970Z,24.82
2017-08-20T07:37:16.416Z,24.84
2017-08-20T07:37:56.902Z,24.92
2017-08-20T07:38:37.359Z,24.97
2017-08-20T07:39:18.067Z,25
2017-08-20T07:39:58.364Z,25.07
2017-08-20T07:40:38.862Z,24.93
2017-08-20T07:41:19.311Z,25
2017-08-20T07:41:59.757Z,25.03
2017-08-20T07:42:40.227Z,25.07
2017-08-20T07:43:20.672Z,24.99
2017-08-20T07:44:01.126Z,25.01
2017-08-20T07:44:41.582Z,25.12
2017-08-20T07:45:22.043Z,25.14
2017-08-20T07:46:02.493Z,25.19
2017-08-20T07:46:42.948Z,25.12
2017-08-20T07:47:23.412Z,25.15
2017-08-20T07:48:03.850Z,25.21
2017-08-20T07:48:44.304Z,25.29
2017-08-20T07:49:24.764Z,25.24
2017-08-20T07:50:05.225Z,25.24
2017-08-20T07:50:45.679Z,25.26
2017-08-20T07:51:26.139Z,25.3
2017-08-20T07:52:06.579Z,25.24
2017-08-20T07:52:47.030Z,25.33
2017-08-20T07:53:27.478Z,25.25
2017-08-20T07:54:07.936Z,25.36
2017-08-20T07:54:48.541Z,25.31
2017-08-20T07:55:29.000Z,25.36
2017-08-20T07:56:09.468Z,25.43
2017-08-20T07:56:49.916Z,25.44
2017-08-20T07:57:30.369Z,25.4
2017-08-20T07:58:10.819Z,25.52
2017-08-20T07:58:51.269Z,25.46
2017-08-20T07:59:31.730Z,25.48
2017-08-20T08:00:12.166Z,25.46
2017-08-20T08:00:52.616Z,25.49
2017-08-20T08:01:33.064Z,25.54
2017-08-20T08:02:13.508Z,25.51
2017-08-20T08:02:53.986Z,25.55
2017-08-20T08:03:34.409Z,25.58
2017-08-20T08:04:14.869Z,25.58
2017-08-20T08:04:55.320Z,25.58
2017-08-20T08:05:35.764Z,25.58
2017-08-20T08:06:16.253Z,25.58
2017-08-20T08:06:56.718Z,25.66
2017-08-20T08:07:37.160Z,25.62
2017-08-20T08:08:17.616Z,25.68
2017-08-20T08:08:58.084Z,25.66
2017-08-20T08:09:38.533Z,25.73
2017-08-20T08:10:18.976Z,25.73
2017-08-20T08:10:59.427Z,25.71
2017-08-20T08:11:39.893Z,25.77
2017-08-20T08:12:20.342Z,25.77
2017-08-20T08:13:00.789Z,25.8
2017-08-20T08:13:41.235Z,25.78
2017-08-20T08:14:21.685Z,25.85
2017-08-20T08:15:02.144Z,25.77
2017-08-20T08:15:42.603Z,25.86
2017-08-20T08:16:23.067Z,25.85
2017-08-20T08:17:03.507Z,25.92
2017-08-20T08:17:44.003Z,25.85
2017-08-20T08:18:24.453Z,25.91
2017-08-20T08:19:04.986Z,25.93
2017-08-20T08:19:45.469Z,25.89
2017-08-20T08:20:25.912Z,25.92
2017-08-20T08:21:06.349Z,25.99
2017-08-20T08:21:47.494Z,25.83
2017-08-20T08:22:27.953Z,25.99
2017-08-20T08:23:08.402Z,26.06
2017-08-20T08:23:48.884Z,26.04
2017-08-20T08:24:29.306Z,26.13
2017-08-20T08:25:09.756Z,25.96
2017-08-20T08:25:50.206Z,25.96
2017-08-20T08:26:30.668Z,25.99
2017-08-20T08:27:11.115Z,26.11
2017-08-20T08:27:51.576Z,26.03
2017-08-20T08:28:32.030Z,26.15
2017-08-20T08:29:12.482Z,26.19
2017-08-20T08:29:52.933Z,26.13
2017-08-20T08:30:33.386Z,26.11
2017-08-20T08:31:13.869Z,26.19
2017-08-20T08:31:54.329Z,26.19
2017-08-20T08:32:34.785Z,26.23
2017-08-20T08:33:15.230Z,26.26
2017-08-20T08:33:55.681Z,26.23
2017-08-20T08:34:36.134Z,26.26
2017-08-20T08:35:16.578Z,26.3
2017-08-20T08:35:57.026Z,26.34
2017-08-20T08:36:38.479Z,26.36
2017-08-20T08:37:19.418Z,26.34
2017-08-20T08:37:59.109Z,26.34
2017-08-20T08:38:39.515Z,26.41
2017-08-20T08:39:19.953Z,26.44
2017-08-20T08:40:00.376Z,26.37
2017-08-20T08:40:41.512Z,26.42
2017-08-20T08:41:22.104Z,26.48
2017-08-20T08:42:02.509Z,26.49
2017-08-20T08:43:39.949Z,26.48
2017-08-20T08:44:20.410Z,26.51
2017-08-20T08:45:00.857Z,26.59
2017-08-20T08:45:41.311Z,26.52
2017-08-20T08:46:21.762Z,26.59